Time;durP1;ratioP1;P1;durP2;ratioP2;P2;SDS_P1;SDS_P2;PMS_P1;PMS_P2;Temp;Humidity;BMP_temperature;BMP_pressure;BME280_temperature;BME280_humidity;BME280_pressure;Samples;Min_cycle;Max_cycle;Signal;HPM_P1;HPM_P2
2022/12/09 02:00:53;;;;;;;17.33;12.77;;;1.50;99.90;;;;;;5057385;28;20043;-88
2022/12/09 02:24:29;;;;;;;17.55;12.82;;;1.50;99.90;;;;;;5026098;28;20569;-89
2022/12/09 04:20:55;;;;;;;14.40;11.15;;;0.50;99.90;;;;;;5061452;28;20052;-87
2022/12/09 04:24:03;;;;;;;15.75;11.90;;;0.40;99.90;;;;;;5021692;28;21763;-86
2022/12/09 04:26:29;;;;;;;18.05;11.55;;;0.40;99.90;;;;;;5036468;28;20044;-87
2022/12/09 04:28:55;;;;;;;15.30;10.52;;;0.90;99.90;;;;;;5065518;28;20041;-88
2022/12/09 04:31:23;;;;;;;15.65;10.30;;;0.30;99.90;;;;;;5054694;28;20529;-87
2022/12/09 04:33:49;;;;;;;18.02;13.07;;;0.20;99.90;;;;;;5028828;28;20041;-87
2022/12/09 04:36:17;;;;;;;18.77;12.50;;;0.30;99.90;;;;;;5044004;28;20090;-87
2022/12/09 04:38:43;;;;;;;15.90;11.82;;;0.90;99.90;;;;;;5030442;28;20028;-87
2022/12/09 04:41:09;;;;;;;15.52;12.35;;;0.20;99.90;;;;;;5040823;28;20028;-87
2022/12/09 04:43:44;;;;;;;16.83;12.40;;;-0.20;99.90;;;;;;5048325;28;20459;-87
2022/12/09 04:46:13;;;;;;;16.80;11.90;;;0.80;99.90;;;;;;5042767;28;20044;-87
2022/12/09 04:48:39;;;;;;;15.75;9.95;;;0.00;99.90;;;;;;5035485;28;20482;-87
2022/12/09 04:51:10;;;;;;;17.40;10.93;;;0.00;99.90;;;;;;5040417;28;20076;-86
2022/12/09 04:53:42;;;;;;;12.65;10.32;;;0.00;99.90;;;;;;5040556;28;20071;-86
2022/12/09 04:56:12;;;;;;;16.48;10.60;;;0.00;99.90;;;;;;5045291;28;20044;-87
2022/12/09 04:58:38;;;;;;;24.45;12.15;;;-0.10;99.90;;;;;;5026349;28;20488;-87
2022/12/09 05:01:28;;;;;;;24.23;12.93;;;-0.10;99.90;;;;;;5039264;28;20140;-88
2022/12/09 05:04:50;;;;;;;17.13;12.35;;;-0.10;99.90;;;;;;5026994;28;20041;-88
2022/12/09 05:11:36;;;;;;;19.23;11.98;;;-0.30;99.90;;;;;;4953662;28;20042;-88
2022/12/09 05:15:01;;;;;;;;;;;;;;;;;;;;;
2022/12/09 05:34:22;;;;;;;19.40;12.63;;;-0.40;99.90;;;;;;4970871;28;20669;-86
2022/12/09 05:36:48;;;;;;;17.27;13.75;;;-0.30;99.90;;;;;;4952962;28;20482;-87
2022/12/09 05:39:28;;;;;;;17.83;12.63;;;-0.30;99.90;;;;;;4922140;28;20046;-85
2022/12/09 05:42:04;;;;;;;21.40;10.88;;;-0.10;99.90;;;;;;4947180;28;20077;-86
2022/12/09 05:44:53;;;;;;;14.57;10.35;;;-0.40;99.90;;;;;;4936383;28;20049;-84
2022/12/09 05:47:24;;;;;;;17.60;11.68;;;-0.50;99.90;;;;;;4941262;28;20054;-84
2022/12/09 05:50:03;;;;;;;17.35;12.75;;;-0.50;99.90;;;;;;4929376;28;20046;-86
2022/12/09 05:52:29;;;;;;;17.83;12.82;;;-0.50;99.90;;;;;;4931753;28;20042;-84
2022/12/09 05:54:55;;;;;;;21.15;12.82;;;0.00;99.90;;;;;;4947934;29;20114;-84
2022/12/09 05:57:22;;;;;;;24.92;13.73;;;-0.50;99.90;;;;;;4936689;28;20058;-84
2022/12/09 05:59:53;;;;;;;19.45;12.98;;;-0.50;99.90;;;;;;4935672;28;20046;-84
2022/12/09 06:02:19;;;;;;;21.17;14.38;;;-0.50;99.90;;;;;;4951775;28;20049;-86
2022/12/09 06:04:44;;;;;;;19.42;13.07;;;-0.10;99.90;;;;;;4942713;28;20039;-84
2022/12/09 06:07:10;;;;;;;20.50;12.52;;;0.00;99.90;;;;;;4952206;28;20509;-85
2022/12/09 06:15:25;;;;;;;16.05;11.02;;;-0.70;99.90;;;;;;4961705;28;20043;-87
2022/12/09 06:17:54;;;;;;;15.02;10.48;;;-0.80;99.90;;;;;;4942765;28;20046;-86
2022/12/09 06:20:41;;;;;;;16.75;11.57;;;-0.80;99.90;;;;;;4975463;28;20038;-85
2022/12/09 06:24:07;;;;;;;21.90;13.35;;;0.10;99.90;;;;;;4939301;28;20035;-87
2022/12/09 06:26:42;;;;;;;25.40;13.82;;;-0.70;99.90;;;;;;4886196;28;21130;-83
2022/12/09 06:29:13;;;;;;;19.02;13.57;;;-0.70;99.90;;;;;;4956312;28;20039;-87
2022/12/09 06:31:39;;;;;;;21.88;13.80;;;-1.10;99.90;;;;;;4943586;28;21952;-84
2022/12/09 06:34:04;;;;;;;22.52;12.75;;;-0.50;99.90;;;;;;4969904;28;20090;-84
2022/12/09 06:36:46;;;;;;;;;;;;;;;;;;;;;
2022/12/09 06:39:15;;;;;;;20.27;13.45;;;-0.80;99.90;;;;;;4951265;28;20111;-84
2022/12/09 06:41:44;;;;;;;17.98;12.77;;;-0.50;99.90;;;;;;4952954;28;20050;-84
2022/12/09 06:44:14;;;;;;;20.63;12.85;;;-0.60;99.90;;;;;;4940247;28;20035;-84
2022/12/09 06:46:42;;;;;;;19.30;14.15;;;-0.70;99.90;;;;;;4970759;28;20047;-84
2022/12/09 06:49:08;;;;;;;18.73;13.00;;;-0.90;99.90;;;;;;4941902;28;20053;-83
2022/12/09 06:51:33;;;;;;;18.13;12.70;;;0.00;99.90;;;;;;4952860;28;20130;-83
2022/12/09 06:53:59;;;;;;;20.33;14.27;;;-0.90;99.90;;;;;;4955656;28;20183;-83
2022/12/09 06:56:28;;;;;;;26.10;14.63;;;0.00;99.90;;;;;;4936256;28;20050;-83
2022/12/09 06:59:04;;;;;;;20.30;13.13;;;-0.90;99.90;;;;;;4958461;28;20046;-83
2022/12/09 07:01:30;;;;;;;19.65;12.55;;;-0.90;99.90;;;;;;4954990;28;20042;-82
2022/12/09 07:03:56;;;;;;;19.25;13.23;;;-0.90;99.90;;;;;;4951007;28;20039;-83
2022/12/09 07:06:42;;;;;;;22.65;14.13;;;-0.80;99.90;;;;;;4940563;28;20065;-83
2022/12/09 07:09:18;;;;;;;21.30;13.27;;;-0.80;99.90;;;;;;4954429;28;20045;-83
2022/12/09 07:11:47;;;;;;;20.80;14.93;;;-1.10;99.90;;;;;;4938375;28;20039;-83
2022/12/09 07:14:22;;;;;;;22.20;14.43;;;-1.10;99.90;;;;;;4936322;28;20523;-83
2022/12/09 07:16:50;;;;;;;20.05;13.65;;;-1.10;99.90;;;;;;4954091;28;20070;-82
2022/12/09 07:19:19;;;;;;;19.52;14.10;;;-1.20;99.90;;;;;;4943369;28;20042;-83
2022/12/09 07:21:45;;;;;;;20.90;14.32;;;-1.10;99.90;;;;;;4954149;28;20073;-84
2022/12/09 07:24:22;;;;;;;21.35;14.77;;;-1.10;99.90;;;;;;4944121;28;20142;-84
2022/12/09 07:26:48;;;;;;;27.05;15.23;;;-1.00;99.90;;;;;;4959267;28;20044;-83
2022/12/09 08:54:52;;;;;;;227.68;34.75;;;0.70;99.90;;;;;;4956749;28;20066;-83
2022/12/09 08:57:46;;;;;;;167.80;33.88;;;0.70;99.90;;;;;;4928521;28;20105;-83
2022/12/09 09:00:21;;;;;;;410.77;36.70;;;0.70;99.90;;;;;;4945316;28;20138;-83
2022/12/09 09:03:05;;;;;;;350.13;36.40;;;0.70;99.90;;;;;;4946609;28;20083;-83
2022/12/09 09:17:26;;;;;;;309.23;37.80;;;0.70;99.90;;;;;;4792702;29;20079;-84
2022/12/09 09:20:05;;;;;;;289.90;37.22;;;0.70;99.90;;;;;;4792606;29;20194;-82
2022/12/09 15:49:02;;;;;;;25.48;18.15;;;1.50;99.90;;;;;;4884807;29;20076;-83
2022/12/09 15:51:30;;;;;;;27.83;17.92;;;1.50;99.90;;;;;;4885995;29;20060;-84
2022/12/09 15:54:01;;;;;;;23.77;17.42;;;2.10;99.90;;;;;;4869919;29;20042;-83
2022/12/09 15:56:51;;;;;;;26.00;18.25;;;1.40;99.90;;;;;;4888068;29;20041;-81
2022/12/09 15:59:27;;;;;;;29.50;18.10;;;1.40;99.90;;;;;;4889851;29;20040;-81
2022/12/09 16:01:55;;;;;;;26.88;18.42;;;1.50;99.90;;;;;;4887076;29;20444;-82
2022/12/09 16:04:36;;;;;;;23.52;18.42;;;1.50;99.90;;;;;;4874305;29;20423;-81
2022/12/09 16:07:09;;;;;;;28.33;18.42;;;1.50;99.90;;;;;;4900161;29;20048;-83
2022/12/09 16:09:35;;;;;;;25.73;19.60;;;1.50;99.90;;;;;;4873041;29;20047;-84
2022/12/09 16:12:01;;;;;;;26.23;18.00;;;1.50;99.90;;;;;;4883149;29;20091;-82
2022/12/09 16:14:42;;;;;;;29.25;19.05;;;1.50;99.90;;;;;;4884481;29;20045;-85
2022/12/09 16:21:23;;;;;;;25.92;16.90;;;1.50;99.90;;;;;;4885053;29;20066;-86
2022/12/09 16:25:11;;;;;;;24.20;17.17;;;1.50;99.90;;;;;;4897313;29;20164;-87
2022/12/09 16:31:19;;;;;;;25.77;17.55;;;1.40;99.90;;;;;;4853798;29;20048;-86
2022/12/09 16:34:49;;;;;;;22.00;16.63;;;1.40;99.90;;;;;;4844922;29;20057;-85
2022/12/09 16:59:58;;;;;;;31.40;18.45;;;1.20;99.90;;;;;;4850792;29;20072;-90
2022/12/09 17:02:52;;;;;;;26.30;16.93;;;1.20;99.90;;;;;;4858201;29;20092;-84
2022/12/09 17:05:50;;;;;;;22.55;16.13;;;1.10;99.90;;;;;;4877692;29;20036;-85
2022/12/09 17:08:39;;;;;;;24.45;15.95;;;1.10;99.90;;;;;;4872379;29;20093;-85
2022/12/09 18:23:21;;;;;;;26.35;17.73;;;0.50;99.90;;;;;;4930595;29;20617;-86
2022/12/09 18:25:48;;;;;;;25.02;16.27;;;0.50;99.90;;;;;;4927286;29;20406;-85
2022/12/09 19:16:02;;;;;;;29.17;19.30;;;0.10;99.90;;;;;;4928439;29;20779;-85
2022/12/09 19:22:31;;;;;;;32.50;19.80;;;1.60;99.90;;;;;;4907216;29;20542;-84
2022/12/09 19:25:15;;;;;;;33.83;20.35;;;0.10;99.90;;;;;;4908469;29;20040;-85
2022/12/09 19:35:12;;;;;;;36.55;21.25;;;0.00;99.90;;;;;;4870029;29;20523;-85
2022/12/09 19:38:13;;;;;;;33.72;20.60;;;0.00;99.90;;;;;;4841727;29;20055;-85
2022/12/09 20:05:44;;;;;;;37.50;22.85;;;-0.20;99.90;;;;;;4930433;29;20050;-85
2022/12/09 20:08:39;;;;;;;35.80;22.52;;;0.10;99.90;;;;;;4933932;29;20040;-85
2022/12/09 20:11:29;;;;;;;39.47;23.20;;;-0.20;99.90;;;;;;4924190;29;20060;-84
